Avoca, Wisconsin
Current Conditions -  °F | °C
As of 6:56 PM on Thursday 27 Nov 2014 (Local Time) from KLNR Reporting Station
Clear Clear  
Wind Chill:   Ceiling: Unl
Heat Index:   Visibility: 10mi
Dew Point: -1°   Wind: 0mph
Humidity: 70%   Direction: NA
Pressure: 30.41"   Gusts: NA
Location:  43.18°N, 90.32°W
Report Text: KLNR 280056Z AUTO 00000KT 10SM CLR M14/M18 A3041 RMK AO2 SLP308 T11391183
Loading
Personal Weather Stations






























Interactive Weather Map New forecast layout! Learn more

10-Day Weather Forecast

Advertisements
Track Severe Weather on mobile